Time;durP1;ratioP1;P1;durP2;ratioP2;P2;SDS_P1;SDS_P2;PMS_P1;PMS_P2;Temp;Humidity;BMP_temperature;BMP_pressure;BME280_temperature;BME280_humidity;BME280_pressure;Samples;Min_cycle;Max_cycle;Signal;HPM_P1;HPM_P2
2020/12/24 00:00:37;;;;;;;0.30;0.30;;;;;;;4.07;88.71;99621.69;5102468;28;20026;-74
2020/12/24 00:03:03;;;;;;;0.30;0.30;;;;;;;4.13;88.68;99625.16;5104633;28;20020;-75
2020/12/24 00:05:28;;;;;;;0.38;0.38;;;;;;;4.08;88.63;99620.00;5102425;28;20048;-76
2020/12/24 00:07:54;;;;;;;0.30;0.30;;;;;;;4.09;88.74;99622.56;5103215;28;20020;-75
2020/12/24 00:10:20;;;;;;;0.30;0.30;;;;;;;4.09;88.81;99629.41;5103760;28;20133;-76
2020/12/24 00:12:45;;;;;;;2.58;1.58;;;;;;;4.05;88.71;99631.13;5104105;28;20032;-76
2020/12/24 00:15:11;;;;;;;0.22;0.22;;;;;;;4.03;88.46;99639.66;5103507;28;20031;-75
2020/12/24 00:17:37;;;;;;;0.30;0.30;;;;;;;3.94;88.44;99648.19;5103700;28;20066;-77
2020/12/24 00:20:06;;;;;;;0.30;0.30;;;;;;;3.85;88.42;99646.38;5103499;28;20028;-77
2020/12/24 00:22:32;;;;;;;0.22;0.22;;;;;;;3.72;88.61;99646.31;5103623;28;20027;-75
2020/12/24 00:24:58;;;;;;;0.38;0.38;;;;;;;3.67;88.32;99642.88;5103236;28;20031;-74
2020/12/24 00:27:23;;;;;;;0.32;0.32;;;;;;;3.62;88.45;99639.41;5103402;28;20058;-75
2020/12/24 00:29:48;;;;;;;0.30;0.30;;;;;;;3.55;88.37;99635.03;5102251;28;20355;-77
2020/12/24 00:32:14;;;;;;;0.30;0.30;;;;;;;3.55;88.23;99633.34;5103279;28;20076;-78
2020/12/24 00:34:40;;;;;;;0.30;0.30;;;;;;;3.49;88.37;99640.13;5103612;28;20024;-77
2020/12/24 00:37:05;;;;;;;0.30;0.30;;;;;;;3.47;88.40;99641.00;5104513;28;20057;-77
2020/12/24 00:39:31;;;;;;;0.30;0.30;;;;;;;3.43;88.41;99636.69;5102244;28;20487;-76
2020/12/24 00:41:56;;;;;;;0.30;0.30;;;;;;;3.38;88.52;99638.34;5103708;28;20107;-77
2020/12/24 00:44:22;;;;;;;0.30;0.30;;;;;;;3.39;88.67;99647.75;5103244;28;20023;-78
2020/12/24 00:46:48;;;;;;;0.30;0.30;;;;;;;3.24;88.59;99633.09;5103341;28;20054;-78
2020/12/24 00:49:13;;;;;;;0.30;0.30;;;;;;;3.17;88.43;99634.75;5103551;28;20031;-78
2020/12/24 00:51:39;;;;;;;0.30;0.30;;;;;;;3.25;88.32;99645.06;5103362;28;20035;-80
2020/12/24 00:54:04;;;;;;;0.32;0.32;;;;;;;3.22;88.31;99643.34;5103371;28;20049;-79
2020/12/24 00:56:29;;;;;;;0.30;0.30;;;;;;;3.22;88.25;99645.03;5103215;28;20357;-78
2020/12/24 00:58:55;;;;;;;0.30;0.30;;;;;;;3.11;88.23;99642.38;5103659;28;20035;-79
2020/12/24 01:01:20;;;;;;;0.30;0.30;;;;;;;3.10;88.24;99644.06;5103172;28;20024;-79
2020/12/24 01:03:45;;;;;;;0.30;0.30;;;;;;;3.04;88.79;99645.72;5103218;28;20024;-77
2020/12/24 01:06:11;;;;;;;0.30;0.30;;;;;;;3.05;88.84;99652.59;5103194;28;20050;-77
2020/12/24 01:08:36;;;;;;;0.30;0.30;;;;;;;3.02;89.14;99632.03;5101787;28;20050;-76
2020/12/24 01:11:02;;;;;;;0.30;0.30;;;;;;;3.01;89.11;99632.88;5103142;28;20023;-75
2020/12/24 01:13:27;;;;;;;0.30;0.30;;;;;;;3.10;89.03;99641.50;5101831;28;20039;-75
2020/12/24 01:15:52;;;;;;;0.30;0.30;;;;;;;3.12;89.08;99645.78;5100986;28;20032;-75
2020/12/24 01:18:18;;;;;;;0.30;0.30;;;;;;;3.12;89.17;99643.22;5104592;28;20515;-75
2020/12/24 01:20:44;;;;;;;0.30;0.30;;;;;;;3.14;89.04;99647.53;5107067;28;20054;-75
2020/12/24 01:23:10;;;;;;;0.30;0.30;;;;;;;3.17;89.11;99646.69;5107190;28;20016;-77
2020/12/24 01:25:35;;;;;;;0.30;0.30;;;;;;;3.16;89.26;99639.84;5106834;28;20073;-76
2020/12/24 01:28:00;;;;;;;0.40;0.40;;;;;;;3.21;89.09;99644.19;5107105;28;20031;-76
2020/12/24 01:30:26;;;;;;;0.30;0.30;;;;;;;3.22;89.25;99635.66;5106559;28;20024;-76
2020/12/24 01:32:51;;;;;;;0.30;0.30;;;;;;;3.26;89.28;99628.00;5105214;28;20020;-74
2020/12/24 01:35:17;;;;;;;0.40;0.40;;;;;;;3.29;89.28;99630.56;5106703;28;20051;-76
2020/12/24 01:37:42;;;;;;;0.30;0.30;;;;;;;3.32;89.11;99631.44;5106815;28;20031;-77
2020/12/24 01:40:10;;;;;;;0.40;0.40;;;;;;;3.27;89.12;99628.00;5105251;28;20039;-78
2020/12/24 01:42:35;;;;;;;0.40;0.40;;;;;;;3.32;89.00;99630.59;5106822;28;20024;-80
2020/12/24 01:45:00;;;;;;;0.40;0.40;;;;;;;3.31;88.86;99628.88;5106800;28;20083;-79
2020/12/24 01:47:26;;;;;;;0.40;0.40;;;;;;;3.26;88.71;99636.53;5106236;28;20032;-79
2020/12/24 01:49:51;;;;;;;0.32;0.32;;;;;;;3.15;88.85;99618.47;5106531;28;20024;-81
2020/12/24 01:52:31;;;;;;;0.38;0.38;;;;;;;3.21;89.06;99633.91;5106756;28;20030;-80
2020/12/24 01:54:57;;;;;;;0.30;0.30;;;;;;;3.18;89.00;99633.06;5106949;28;20020;-80
2020/12/24 01:57:23;;;;;;;0.30;0.30;;;;;;;3.18;88.93;99623.63;5106442;28;20084;-79
2020/12/24 01:59:49;;;;;;;0.20;0.20;;;;;;;3.18;88.83;99628.75;5106696;28;20053;-80
2020/12/24 02:02:14;;;;;;;0.40;0.40;;;;;;;3.12;88.78;99621.00;5106092;28;20038;-77
2020/12/24 02:04:40;;;;;;;0.30;0.30;;;;;;;3.13;89.03;99625.28;5105997;28;20031;-79
2020/12/24 02:07:05;;;;;;;0.30;0.30;;;;;;;3.14;89.00;99624.47;5106345;28;20055;-78
2020/12/24 02:09:31;;;;;;;0.30;0.30;;;;;;;3.17;88.91;99624.47;5104943;28;20047;-78
2020/12/24 02:11:58;;;;;;;0.30;0.30;;;;;;;3.15;88.84;99626.16;5106268;28;20377;-78
2020/12/24 02:14:24;;;;;;;0.30;0.30;;;;;;;3.14;88.53;99624.47;5106449;28;20046;-78
2020/12/24 02:16:49;;;;;;;0.30;0.30;;;;;;;3.12;88.60;99622.69;5104409;28;20028;-77
2020/12/24 02:19:14;;;;;;;0.30;0.30;;;;;;;3.10;88.62;99621.00;5106207;28;20449;-76
2020/12/24 02:21:40;;;;;;;0.30;0.30;;;;;;;3.08;88.66;99616.72;5105979;28;20032;-74
2020/12/24 02:24:05;;;;;;;0.40;0.40;;;;;;;3.05;88.40;99606.41;5106003;28;20042;-74
2020/12/24 02:26:31;;;;;;;0.30;0.30;;;;;;;3.00;88.29;99613.19;5106031;28;20027;-74
2020/12/24 02:28:57;;;;;;;0.35;0.35;;;;;;;3.02;88.39;99624.34;5105859;28;20016;-75
2020/12/24 02:31:22;;;;;;;0.35;0.35;;;;;;;2.99;88.29;99614.91;5104988;28;20028;-76
2020/12/24 02:33:48;;;;;;;0.40;0.40;;;;;;;3.05;88.09;99621.81;5104681;28;20027;-74
2020/12/24 02:36:13;;;;;;;0.30;0.30;;;;;;;3.02;88.29;99621.78;5105626;28;20212;-75
2020/12/24 02:38:38;;;;;;;0.40;0.40;;;;;;;2.95;88.44;99619.16;5105449;28;20506;-76
2020/12/24 02:41:04;;;;;;;0.40;0.40;;;;;;;3.03;88.51;99628.63;5105685;28;20016;-75
2020/12/24 02:43:29;;;;;;;0.30;0.30;;;;;;;3.04;88.46;99627.75;5105625;28;20043;-76
2020/12/24 02:45:55;;;;;;;0.35;0.35;;;;;;;3.02;88.54;99612.34;5105170;28;20060;-74
2020/12/24 02:48:20;;;;;;;0.30;0.30;;;;;;;3.06;88.43;99613.25;5105416;28;20028;-74
2020/12/24 02:50:46;;;;;;;0.30;0.30;;;;;;;3.04;88.43;99608.13;5105265;28;20032;-72
2020/12/24 02:53:11;;;;;;;0.30;0.30;;;;;;;3.09;88.43;99620.97;5105175;28;20020;-72
2020/12/24 02:55:37;;;;;;;0.35;0.35;;;;;;;3.10;88.35;99617.56;5105185;28;20034;-73
2020/12/24 02:58:02;;;;;;;0.40;0.40;;;;;;;3.08;88.63;99616.72;5105185;28;20430;-73
2020/12/24 03:00:27;;;;;;;0.30;0.30;;;;;;;3.08;88.32;99616.72;5104955;28;20082;-72
2020/12/24 03:02:53;;;;;;;0.30;0.30;;;;;;;3.09;88.42;99621.84;5105062;28;20042;-73
2020/12/24 03:05:18;;;;;;;0.40;0.40;;;;;;;3.09;88.27;99623.53;5104640;28;20048;-73
2020/12/24 03:07:51;;;;;;;0.30;0.30;;;;;;;3.14;88.60;99618.47;5105238;28;20058;-73
2020/12/24 03:10:18;;;;;;;0.30;0.30;;;;;;;3.17;88.33;99619.34;5104963;28;20062;-74
2020/12/24 03:12:43;;;;;;;0.30;0.30;;;;;;;3.09;88.14;99616.72;5105029;28;20028;-74
2020/12/24 03:15:11;;;;;;;0.35;0.35;;;;;;;3.05;88.13;99619.25;5104420;28;20031;-72
2020/12/24 03:17:37;;;;;;;0.30;0.30;;;;;;;3.02;88.30;99612.34;5104631;28;20019;-74
2020/12/24 03:20:02;;;;;;;0.30;0.30;;;;;;;2.93;88.03;99613.16;5104781;28;20062;-74
2020/12/24 03:22:28;;;;;;;0.30;0.30;;;;;;;2.91;88.20;99619.94;5105189;28;20043;-75
2020/12/24 03:24:53;;;;;;;0.30;0.30;;;;;;;2.88;88.23;99619.91;5103386;28;20512;-74
2020/12/24 03:27:18;;;;;;;0.30;0.30;;;;;;;2.81;88.30;99625.84;5104580;28;20057;-73
2020/12/24 03:29:43;;;;;;;0.30;0.30;;;;;;;2.82;88.09;99630.13;5104509;28;20034;-72
2020/12/24 03:32:09;;;;;;;0.30;0.30;;;;;;;2.75;88.29;99625.78;5104395;28;20020;-72
2020/12/24 03:34:34;;;;;;;0.30;0.30;;;;;;;2.78;88.31;99633.50;5104444;28;20024;-71
2020/12/24 03:37:00;;;;;;;0.40;0.40;;;;;;;2.76;88.14;99627.50;5104280;28;20028;-71
2020/12/24 03:39:25;;;;;;;0.40;0.40;;;;;;;2.68;87.88;99633.41;5104351;28;20031;-71
2020/12/24 03:41:50;;;;;;;0.30;0.30;;;;;;;2.63;87.77;99629.91;5104301;28;20034;-70
2020/12/24 03:44:16;;;;;;;0.30;0.30;;;;;;;2.60;87.94;99622.19;5104291;28;20125;-72
2020/12/24 03:46:41;;;;;;;0.40;0.40;;;;;;;2.55;87.92;99636.66;5103911;28;20092;-71
2020/12/24 03:49:07;;;;;;;0.30;0.30;;;;;;;2.53;87.17;99636.63;5104113;28;20030;-71
2020/12/24 03:51:32;;;;;;;0.30;0.30;;;;;;;2.45;87.43;99636.53;5104267;28;20028;-73
2020/12/24 03:53:57;;;;;;;0.30;0.30;;;;;;;2.46;87.77;99634.84;5102869;28;20024;-73
2020/12/24 03:56:23;;;;;;;0.40;0.40;;;;;;;2.44;87.49;99637.41;5104096;28;20020;-71
2020/12/24 03:58:48;;;;;;;0.30;0.30;;;;;;;2.42;87.83;99638.19;5102667;28;20548;-71
2020/12/24 04:01:13;;;;;;;0.30;0.30;;;;;;;2.41;87.48;99631.38;5103685;28;20035;-70
2020/12/24 04:03:39;;;;;;;0.40;0.40;;;;;;;2.32;87.27;99622.72;5103019;28;20115;-71
2020/12/24 04:06:05;;;;;;;0.40;0.40;;;;;;;2.29;87.50;99624.38;5103626;28;20556;-71
2020/12/24 04:08:30;;;;;;;0.35;0.35;;;;;;;2.21;87.61;99627.69;5104165;28;20051;-71
2020/12/24 04:10:55;;;;;;;0.38;0.38;;;;;;;2.17;87.72;99620.78;5103887;28;20028;-71
2020/12/24 04:13:21;;;;;;;0.40;0.40;;;;;;;2.26;87.83;99634.56;5103950;28;20032;-69
2020/12/24 04:15:46;;;;;;;0.40;0.40;;;;;;;2.19;87.75;99629.38;5103273;28;20024;-69
2020/12/24 04:18:11;;;;;;;0.40;0.40;;;;;;;2.19;87.59;99634.50;5104014;28;20062;-70
2020/12/24 04:20:37;;;;;;;0.30;0.30;;;;;;;2.13;87.52;99624.16;5103902;28;20113;-70
2020/12/24 04:23:02;;;;;;;0.40;0.40;;;;;;;1.99;87.60;99623.97;5103870;28;20062;-70
2020/12/24 04:25:27;;;;;;;0.30;0.30;;;;;;;2.02;87.25;99630.84;5103640;28;20028;-70
2020/12/24 04:27:53;;;;;;;0.30;0.30;;;;;;;1.96;87.23;99631.63;5103780;28;20016;-71
2020/12/24 04:30:18;;;;;;;0.32;0.32;;;;;;;1.85;87.31;99623.78;5103395;28;20042;-69
2020/12/24 04:32:43;;;;;;;0.40;0.40;;;;;;;1.79;87.41;99629.66;5103420;28;20134;-70
2020/12/24 04:35:09;;;;;;;0.30;0.30;;;;;;;1.78;87.29;99632.19;5103591;28;20371;-74
2020/12/24 04:37:34;;;;;;;0.38;0.38;;;;;;;1.77;87.42;99638.16;5103533;28;20273;-71
2020/12/24 04:39:59;;;;;;;0.32;0.32;;;;;;;1.75;87.48;99632.16;5103475;28;20045;-71
2020/12/24 04:42:25;;;;;;;0.30;0.30;;;;;;;1.68;87.56;99626.94;5103686;28;20024;-70
2020/12/24 04:44:52;;;;;;;0.30;0.30;;;;;;;1.72;87.67;99651.78;5103393;28;20016;-71
2020/12/24 04:47:18;;;;;;;0.20;0.20;;;;;;;1.75;87.59;99662.88;5103170;28;20028;-71
2020/12/24 04:49:43;;;;;;;0.30;0.30;;;;;;;1.75;87.64;99656.06;5102124;28;20020;-71
2020/12/24 04:52:08;;;;;;;0.40;0.40;;;;;;;1.78;87.73;99657.78;5103528;28;20016;-71
2020/12/24 04:54:34;;;;;;;0.40;0.40;;;;;;;1.59;87.79;99629.38;5107237;28;20077;-71
2020/12/24 04:57:08;;;;;;;0.35;0.35;;;;;;;1.65;87.82;99642.25;5107385;28;20020;-71
2020/12/24 04:59:34;;;;;;;0.40;0.40;;;;;;;1.70;87.88;99650.88;5107530;28;20020;-71
2020/12/24 05:02:03;;;;;;;0.32;0.32;;;;;;;1.71;87.89;99646.63;5107130;28;20086;-72
2020/12/24 05:04:29;;;;;;;0.30;0.30;;;;;;;1.74;87.94;99654.34;5107395;28;20024;-71
2020/12/24 05:07:06;;;;;;;0.40;0.40;;;;;;;1.72;88.10;99653.44;5107107;28;20496;-71
2020/12/24 05:09:33;;;;;;;0.38;0.38;;;;;;;1.71;87.75;99651.75;5107621;28;20028;-71
2020/12/24 05:11:59;;;;;;;0.30;0.30;;;;;;;1.71;87.78;99673.06;5107205;28;20408;-70
2020/12/24 05:14:27;;;;;;;0.45;0.45;;;;;;;1.73;87.95;99678.19;5105768;28;20020;-70
2020/12/24 05:16:56;;;;;;;0.40;0.40;;;;;;;1.69;87.97;99656.81;5106748;28;20028;-71
2020/12/24 05:19:23;;;;;;;0.30;0.30;;;;;;;1.71;88.01;99661.97;5107445;28;20028;-71
2020/12/24 05:21:48;;;;;;;0.30;0.30;;;;;;;1.76;88.09;99668.00;5105872;28;20032;-71
2020/12/24 05:24:27;;;;;;;0.40;0.40;;;;;;;1.76;88.08;99662.88;5107104;28;20200;-69
2020/12/24 05:27:09;;;;;;;0.30;0.30;;;;;;;1.68;87.81;99652.53;5106799;28;20081;-71
2020/12/24 05:29:37;;;;;;;0.50;0.50;;;;;;;1.73;87.80;99655.16;5107014;28;20103;-71
2020/12/24 05:32:02;;;;;;;0.85;0.85;;;;;;;1.75;87.93;99666.31;5106590;28;20028;-71
2020/12/24 05:34:28;;;;;;;0.40;0.40;;;;;;;1.76;87.67;99660.34;5106836;28;20028;-70
2020/12/24 05:37:15;;;;;;;0.40;0.40;;;;;;;1.70;87.92;99660.25;5106857;28;20099;-70
2020/12/24 05:39:43;;;;;;;0.30;0.30;;;;;;;1.74;87.98;99656.91;5107063;28;20072;-71
2020/12/24 05:42:09;;;;;;;0.40;0.40;;;;;;;1.83;88.08;99661.28;5106642;28;20032;-71
2020/12/24 05:44:35;;;;;;;0.30;0.30;;;;;;;1.90;87.98;99667.38;5107006;28;20092;-71
2020/12/24 05:47:01;;;;;;;0.32;0.32;;;;;;;1.91;87.94;99659.72;5106285;28;20087;-69
2020/12/24 05:49:27;;;;;;;0.30;0.30;;;;;;;1.94;88.01;99662.31;5106713;28;20035;-68
2020/12/24 05:52:01;;;;;;;0.30;0.30;;;;;;;1.95;87.84;99661.47;5106692;28;20412;-69
2020/12/24 05:54:29;;;;;;;0.40;0.40;;;;;;;1.96;87.79;99660.66;5106751;28;20024;-69
2020/12/24 05:56:55;;;;;;;0.30;0.30;;;;;;;1.96;87.85;99665.78;5106441;28;20028;-69
2020/12/24 05:59:24;;;;;;;0.40;0.40;;;;;;;1.95;87.71;99664.03;5106505;28;20024;-68
2020/12/24 06:02:02;;;;;;;0.30;0.30;;;;;;;1.92;87.84;99663.13;5106038;28;20063;-67
2020/12/24 06:04:43;;;;;;;0.30;0.30;;;;;;;1.92;87.80;99666.56;5105006;28;20103;-70
2020/12/24 06:07:09;;;;;;;0.38;0.38;;;;;;;1.92;87.99;99664.00;5104908;28;20379;-69
2020/12/24 06:09:38;;;;;;;0.38;0.38;;;;;;;1.92;87.94;99661.44;5106231;28;20055;-70
2020/12/24 06:12:20;;;;;;;0.30;0.30;;;;;;;1.94;88.00;99664.00;5105972;28;20016;-68
2020/12/24 06:14:49;;;;;;;0.40;0.40;;;;;;;1.93;88.15;99672.53;5106225;28;20103;-72
2020/12/24 06:17:15;;;;;;;0.35;0.35;;;;;;;1.86;88.08;99661.34;5104237;28;20317;-70
2020/12/24 06:19:42;;;;;;;0.30;0.30;;;;;;;1.89;87.88;99656.25;5105874;28;20039;-70
2020/12/24 06:22:08;;;;;;;0.30;0.30;;;;;;;1.89;87.84;99669.06;5105787;28;20360;-69
2020/12/24 06:24:38;;;;;;;0.50;0.50;;;;;;;1.95;87.90;99670.88;5104782;28;20020;-69
2020/12/24 06:27:09;;;;;;;0.40;0.40;;;;;;;1.93;87.85;99672.53;5105901;28;20051;-69
2020/12/24 06:29:39;;;;;;;0.40;0.40;;;;;;;1.96;87.80;99670.91;5105996;28;20055;-70
2020/12/24 06:32:07;;;;;;;0.40;0.40;;;;;;;2.00;88.04;99678.63;5105604;28;20027;-69
2020/12/24 06:34:37;;;;;;;0.40;0.40;;;;;;;2.03;87.82;99676.09;5104467;28;20103;-70
2020/12/24 06:37:17;;;;;;;0.30;0.30;;;;;;;2.06;87.79;99674.44;5105652;28;20024;-71
2020/12/24 06:39:45;;;;;;;0.30;0.30;;;;;;;2.04;87.67;99680.38;5105749;28;20052;-71
2020/12/24 06:42:36;;;;;;;0.30;0.30;;;;;;;2.07;87.83;99685.53;5105774;28;20020;-71
2020/12/24 06:45:06;;;;;;;0.40;0.40;;;;;;;2.01;87.76;99678.66;5105452;28;20545;-70
2020/12/24 06:47:32;;;;;;;0.40;0.40;;;;;;;2.04;87.74;99680.38;5105242;28;20023;-70
2020/12/24 06:49:57;;;;;;;0.35;0.35;;;;;;;1.93;87.88;99668.25;5105557;28;20187;-70
2020/12/24 06:52:30;;;;;;;0.30;0.30;;;;;;;1.88;87.75;99669.91;5104412;28;20028;-71
2020/12/24 06:55:13;;;;;;;0.40;0.40;;;;;;;1.91;87.71;99681.88;5105519;28;20080;-70
2020/12/24 06:57:41;;;;;;;0.30;0.30;;;;;;;1.86;87.60;99681.81;5105400;28;20024;-70
2020/12/24 07:00:18;;;;;;;0.30;0.30;;;;;;;1.88;87.47;99695.50;5105402;28;20103;-70
2020/12/24 07:02:51;;;;;;;0.50;0.50;;;;;;;1.84;87.50;99692.03;5104988;28;20076;-72
2020/12/24 07:05:42;;;;;;;0.40;0.40;;;;;;;1.84;87.54;99709.06;5103744;28;20501;-69
2020/12/24 07:08:11;;;;;;;0.40;0.40;;;;;;;1.83;87.51;99703.13;5105181;28;20023;-70
2020/12/24 07:10:45;;;;;;;0.32;0.32;;;;;;;1.83;87.67;99710.81;5105110;28;20107;-71
2020/12/24 07:13:38;;;;;;;3.50;2.95;;;;;;;1.88;87.49;99715.13;5103583;28;20023;-71
2020/12/24 07:16:05;;;;;;;0.30;0.30;;;;;;;1.84;87.52;99725.31;5096139;28;20032;-69
2020/12/24 07:18:40;;;;;;;0.32;0.32;;;;;;;1.72;87.53;99710.63;5104951;28;20034;-70
2020/12/24 07:21:10;;;;;;;0.40;0.40;;;;;;;1.69;87.38;99719.94;5105137;28;20020;-69
2020/12/24 07:23:37;;;;;;;0.70;0.70;;;;;;;1.69;87.31;99736.13;5105252;28;20020;-70
2020/12/24 07:26:05;;;;;;;0.30;0.30;;;;;;;1.66;87.21;99735.25;5104918;28;20024;-70
2020/12/24 07:28:34;;;;;;;0.30;0.30;;;;;;;1.55;87.17;99727.38;5103589;28;20119;-68
2020/12/24 07:31:04;;;;;;;0.40;0.40;;;;;;;1.51;87.19;99736.69;5104441;28;20030;-68
2020/12/24 07:33:30;;;;;;;0.40;0.40;;;;;;;1.45;87.22;99742.53;5104942;28;20075;-69
2020/12/24 07:35:56;;;;;;;0.40;0.40;;;;;;;1.39;87.45;99744.16;5104869;28;20024;-73
2020/12/24 07:38:23;;;;;;;0.40;0.40;;;;;;;1.32;87.29;99744.03;5104762;28;20108;-69
2020/12/24 07:40:49;;;;;;;0.40;0.40;;;;;;;1.20;87.41;99752.31;5104835;28;20024;-70
2020/12/24 07:43:14;;;;;;;0.40;0.40;;;;;;;1.21;87.38;99755.75;5103415;28;20051;-72
2020/12/24 07:45:41;;;;;;;0.40;0.40;;;;;;;1.11;87.44;99741.94;5104204;28;20035;-73
2020/12/24 07:48:21;;;;;;;0.35;0.35;;;;;;;1.09;87.46;99762.34;5104583;28;20023;-68
2020/12/24 07:50:51;;;;;;;0.30;0.30;;;;;;;1.02;87.14;99757.97;5103139;28;20020;-67
2020/12/24 07:53:24;;;;;;;0.40;0.40;;;;;;;0.92;87.36;99762.03;5104476;28;20031;-71
2020/12/24 07:55:50;;;;;;;0.40;0.40;;;;;;;0.89;87.37;99771.31;5104291;28;20020;-70
2020/12/24 07:58:17;;;;;;;0.40;0.40;;;;;;;0.83;87.45;99775.44;5104115;28;20020;-72
2020/12/24 08:00:52;;;;;;;0.38;0.38;;;;;;;0.76;87.43;99765.06;5103956;28;20023;-74
2020/12/24 08:03:18;;;;;;;0.40;0.40;;;;;;;0.70;87.46;99756.44;5104225;28;20015;-75
2020/12/24 08:05:45;;;;;;;0.38;0.38;;;;;;;0.70;87.30;99776.88;5104020;28;20048;-73
2020/12/24 08:08:11;;;;;;;0.30;0.30;;;;;;;0.60;87.34;99769.84;5104347;28;20032;-75
2020/12/24 08:10:41;;;;;;;0.38;0.38;;;;;;;0.60;87.30;99782.63;5103148;28;20020;-72
2020/12/24 08:13:07;;;;;;;0.40;0.40;;;;;;;0.57;87.39;99793.66;5104541;28;20059;-73
2020/12/24 08:15:37;;;;;;;0.40;0.40;;;;;;;0.55;87.30;99787.63;5104472;28;20030;-73
2020/12/24 08:18:07;;;;;;;0.40;0.40;;;;;;;0.52;87.53;99791.81;5104381;28;20086;-74
2020/12/24 08:20:50;;;;;;;0.38;0.38;;;;;;;0.48;87.36;99798.53;5104752;28;20020;-74
2020/12/24 08:23:44;;;;;;;0.30;0.30;;;;;;;0.36;87.28;99782.13;5104382;28;20019;-74
2020/12/24 08:26:12;;;;;;;0.40;0.40;;;;;;;0.39;87.20;99791.53;5093307;28;20038;-74
2020/12/24 08:28:39;;;;;;;0.40;0.40;;;;;;;0.35;87.27;99794.84;5103406;28;20054;-74
2020/12/24 08:31:08;;;;;;;0.40;0.40;;;;;;;0.35;87.35;99795.69;5103547;28;20028;-74
2020/12/24 08:33:34;;;;;;;0.30;0.30;;;;;;;0.24;87.46;99790.34;5103718;28;20020;-73
2020/12/24 08:36:13;;;;;;;0.40;0.40;;;;;;;0.33;87.41;99804.16;5103451;28;20090;-71
2020/12/24 08:38:38;;;;;;;0.40;0.40;;;;;;;0.31;87.18;99810.91;5104011;28;20054;-72
2020/12/24 08:41:03;;;;;;;0.32;0.32;;;;;;;0.28;87.24;99809.16;5103752;28;20024;-73
2020/12/24 08:43:31;;;;;;;0.40;0.40;;;;;;;0.25;87.33;99796.31;5103389;28;20020;-71
2020/12/24 08:45:57;;;;;;;0.40;0.40;;;;;;;0.22;87.42;99804.75;5103163;28;20024;-74
2020/12/24 08:48:32;;;;;;;0.40;0.40;;;;;;;0.27;87.25;99806.56;5103592;28;20065;-72
2020/12/24 08:50:58;;;;;;;0.40;0.40;;;;;;;0.27;87.21;99819.31;5103483;28;20024;-73
2020/12/24 08:53:25;;;;;;;0.38;0.38;;;;;;;0.20;87.40;99819.19;5102170;28;20035;-73
2020/12/24 08:55:51;;;;;;;0.30;0.30;;;;;;;0.21;87.19;99812.38;5103428;28;20040;-73
2020/12/24 08:58:17;;;;;;;0.30;0.30;;;;;;;0.24;87.38;99815.88;5103614;28;20027;-73
2020/12/24 09:00:42;;;;;;;0.30;0.30;;;;;;;0.28;87.19;99826.16;5103092;28;20108;-73
2020/12/24 09:03:28;;;;;;;0.40;0.40;;;;;;;0.28;87.29;99833.81;5103210;28;20050;-74
2020/12/24 09:05:54;;;;;;;0.40;0.40;;;;;;;0.29;87.21;99838.13;5103118;28;20075;-71
2020/12/24 09:08:24;;;;;;;0.40;0.40;;;;;;;0.27;87.42;99843.19;5101989;28;20024;-74
2020/12/24 09:10:52;;;;;;;0.38;0.38;;;;;;;0.27;87.29;99842.31;5101856;28;20374;-74
2020/12/24 09:13:17;;;;;;;0.40;0.40;;;;;;;0.29;87.30;99850.88;5103215;28;20035;-73
2020/12/24 09:15:43;;;;;;;0.40;0.40;;;;;;;0.27;87.20;99843.19;5102842;28;20048;-73
2020/12/24 09:18:09;;;;;;;0.40;0.40;;;;;;;0.30;87.02;99844.94;5103065;28;20020;-73
2020/12/24 09:20:34;;;;;;;0.40;0.40;;;;;;;0.24;87.06;99838.84;5103309;28;20076;-74
2020/12/24 09:23:02;;;;;;;0.40;0.40;;;;;;;0.30;87.10;99858.59;5103248;28;20024;-71
2020/12/24 09:25:41;;;;;;;0.38;0.38;;;;;;;0.30;87.08;99858.59;5103230;28;20040;-71
2020/12/24 09:28:27;;;;;;;0.40;0.40;;;;;;;0.32;86.96;99869.66;5103285;28;20024;-66
2020/12/24 09:31:01;;;;;;;0.38;0.38;;;;;;;0.31;86.71;99874.75;5102881;28;20020;-72
2020/12/24 09:33:30;;;;;;;0.40;0.40;;;;;;;0.22;86.85;99854.97;5103060;28;20026;-75
2020/12/24 09:35:56;;;;;;;0.40;0.40;;;;;;;0.32;86.68;99867.13;5102995;28;20031;-73
2020/12/24 09:38:21;;;;;;;0.32;0.32;;;;;;;0.34;86.96;99865.47;5103171;28;20051;-75
2020/12/24 09:40:47;;;;;;;0.30;0.30;;;;;;;0.37;86.99;99869.78;5106846;28;20034;-74
2020/12/24 09:43:12;;;;;;;0.35;0.35;;;;;;;0.41;87.00;99869.06;5106818;28;20032;-73
2020/12/24 09:45:38;;;;;;;0.40;0.40;;;;;;;0.43;86.89;99890.38;5106304;28;20070;-72
2020/12/24 09:48:05;;;;;;;0.40;0.40;;;;;;;0.52;86.61;99886.31;5106505;28;20024;-75
2020/12/24 09:50:30;;;;;;;0.40;0.40;;;;;;;0.55;86.43;99881.28;5106556;28;20121;-71
2020/12/24 09:52:56;;;;;;;0.30;0.30;;;;;;;0.61;86.39;99889.97;5107043;28;20471;-72
2020/12/24 09:55:22;;;;;;;0.50;0.50;;;;;;;0.58;86.68;99884.78;5106394;28;20040;-74
2020/12/24 09:57:47;;;;;;;0.35;0.35;;;;;;;0.77;86.77;99886.91;5104969;28;20028;-62
2020/12/24 10:00:13;;;;;;;0.40;0.40;;;;;;;0.95;86.83;99892.44;5106561;28;20099;-62
2020/12/24 10:02:38;;;;;;;0.40;0.40;;;;;;;1.13;86.44;99893.69;5105821;28;20027;-63
2020/12/24 10:05:07;;;;;;;0.32;0.32;;;;;;;1.23;86.27;99880.25;5106095;28;20044;-63
2020/12/24 10:07:34;;;;;;;0.30;0.30;;;;;;;1.41;86.02;99906.19;5106182;28;20020;-63
2020/12/24 10:09:59;;;;;;;0.32;0.32;;;;;;;1.57;85.83;99897.13;5106253;28;20058;-62
2020/12/24 10:12:27;;;;;;;0.40;0.40;;;;;;;1.71;85.22;99907.66;5106091;28;20020;-66
2020/12/24 10:14:54;;;;;;;0.30;0.30;;;;;;;1.75;84.49;99908.56;5106151;28;20059;-66
2020/12/24 10:17:23;;;;;;;0.40;0.40;;;;;;;1.71;84.15;99902.53;5105666;28;20028;-66
2020/12/24 10:19:51;;;;;;;0.38;0.38;;;;;;;1.65;83.88;99903.28;5106081;28;20023;-66
2020/12/24 10:22:17;;;;;;;0.40;0.40;;;;;;;1.69;84.32;99897.38;5105889;28;20470;-63
2020/12/24 10:24:43;;;;;;;0.30;0.30;;;;;;;1.73;84.09;99911.97;5105885;28;20031;-61
2020/12/24 10:27:12;;;;;;;0.40;0.40;;;;;;;1.80;83.71;99922.31;5104275;28;20461;-63
2020/12/24 10:29:38;;;;;;;0.40;0.40;;;;;;;1.73;83.56;99911.09;5105715;28;20028;-64
2020/12/24 10:32:07;;;;;;;0.40;0.40;;;;;;;1.72;83.72;99925.59;5102946;28;20051;-64
2020/12/24 10:34:32;;;;;;;0.40;0.40;;;;;;;1.76;83.58;99915.44;5105787;28;20020;-64
2020/12/24 10:37:00;;;;;;;0.30;0.30;;;;;;;1.71;83.62;99905.09;5105149;28;20043;-65
2020/12/24 10:39:27;;;;;;;0.40;0.40;;;;;;;1.70;83.16;99927.25;5105308;28;20047;-71
2020/12/24 10:41:52;;;;;;;1.40;1.40;;;;;;;1.58;82.83;99906.56;5104172;28;20042;-73
2020/12/24 10:44:18;;;;;;;0.30;0.30;;;;;;;1.41;82.41;99903.63;5105124;28;20464;-70
2020/12/24 10:46:44;;;;;;;0.45;0.45;;;;;;;1.28;82.56;99900.81;5105158;28;20107;-71
2020/12/24 10:49:10;;;;;;;0.35;0.35;;;;;;;1.21;82.50;99927.97;5105271;28;20020;-69
2020/12/24 10:51:35;;;;;;;0.30;0.30;;;;;;;1.14;82.52;99931.19;5104639;28;20103;-70
2020/12/24 10:54:01;;;;;;;0.40;0.40;;;;;;;1.07;82.50;99914.84;5105218;28;20460;-69
2020/12/24 10:56:26;;;;;;;0.40;0.40;;;;;;;1.01;82.67;99919.81;5104664;28;20024;-71
2020/12/24 10:58:52;;;;;;;0.40;0.40;;;;;;;0.99;82.66;99917.22;5104902;28;20028;-69
2020/12/24 11:01:19;;;;;;;0.40;0.40;;;;;;;0.93;82.37;99929.00;5105090;28;20047;-68
2020/12/24 11:03:46;;;;;;;0.40;0.40;;;;;;;0.92;82.53;99925.59;5105187;28;20157;-69
2020/12/24 11:06:22;;;;;;;0.40;0.40;;;;;;;0.86;82.23;99918.63;5104685;28;20063;-67
2020/12/24 11:08:49;;;;;;;0.38;0.38;;;;;;;0.68;82.38;99906.31;5105107;28;20098;-69
2020/12/24 11:11:14;;;;;;;0.40;0.40;;;;;;;0.71;82.19;99916.59;5104693;28;20079;-69
2020/12/24 11:13:44;;;;;;;0.40;0.40;;;;;;;0.64;82.41;99924.94;5104927;28;20020;-68
2020/12/24 11:16:31;;;;;;;0.40;0.40;;;;;;;0.73;82.60;99927.72;5104271;28;20083;-70
2020/12/24 11:18:56;;;;;;;0.50;0.50;;;;;;;0.91;81.56;99928.97;5104510;28;20040;-72
2020/12/24 11:21:22;;;;;;;0.40;0.40;;;;;;;0.86;81.47;99915.25;5104686;28;20031;-72
2020/12/24 11:23:49;;;;;;;0.40;0.40;;;;;;;0.88;81.61;99916.13;5104810;28;20018;-72
2020/12/24 11:26:22;;;;;;;0.40;0.40;;;;;;;0.97;81.68;99924.03;5103041;28;20106;-71
2020/12/24 11:28:48;;;;;;;0.40;0.40;;;;;;;1.28;81.40;99928.09;5104665;28;20088;-71
2020/12/24 11:31:13;;;;;;;0.38;0.38;;;;;;;1.52;80.55;99901.31;5104174;28;20020;-71
2020/12/24 11:33:42;;;;;;;0.40;0.40;;;;;;;1.55;79.88;99915.00;5104489;28;20074;-74
2020/12/24 11:36:07;;;;;;;0.40;0.40;;;;;;;1.38;79.74;99914.66;5103058;28;20077;-73
2020/12/24 11:38:32;;;;;;;0.35;0.35;;;;;;;1.42;80.56;99929.22;5103090;28;20020;-73
2020/12/24 11:40:58;;;;;;;0.30;0.30;;;;;;;1.45;80.98;99924.19;5104374;28;20024;-71
2020/12/24 11:43:23;;;;;;;0.40;0.40;;;;;;;1.61;82.11;99921.97;5104375;28;20015;-71